Flight Track Log - Related Links

Times and Time Zones

All times are in EDT time to prevent confusion due to time zone crossing. See the N143DE flight status page for this flight to view local times or setup timezone preferences in your user account.

Time Position Orientation Groundspeed Altitude Reporting Facility
EDT Latitude Longitude Course Direction KTS MPH feet Rate Location/Type
Tue 10:47:33 PM 34.6394 -84.1525 35° Northeast 187 215 17,500  Level Atlanta Center
Tue 10:48:33 PM 34.6792 -84.1144 38° Northeast 187 215 18,100 750 Climbing Atlanta Center
Tue 10:49:33 PM 34.7231 -84.0742 37° Northeast 187 215 19,000 450 Climbing Atlanta Center
Tue 10:50:33 PM 34.7711 -84.0286 38° Northeast 195 224 19,000  Level Atlanta Center
Tue 10:51:33 PM 34.8253 -83.9831 35° Northeast 216 249 19,000  Level Atlanta Center
Tue 10:52:00 PM 34.9374 -83.7946 35° Northeast  Level Estimated
Tue 10:52:33 PM 34.8731 -83.9325 41° Northeast 237 273 19,000  Level Atlanta Center
Tue 10:53:33 PM 34.9317 -83.8817 35° Northeast 237 273 19,000  Level Atlanta Center
Tue 10:54:33 PM 34.9817 -83.8333 38° Northeast 243 280 19,000  Level Atlanta Center
Tue 10:55:33 PM 35.0358 -83.7825 38° Northeast 243 280 19,000  Level Atlanta Center
Tue 10:56:33 PM 35.0900 -83.7342 36° Northeast 243 280 19,000  Level Atlanta Center
Tue 10:57:33 PM 35.1439 -83.6831 38° Northeast 243 280 19,000  Level Atlanta Center
Tue 10:58:33 PM 35.2003 -83.6319 37° Northeast 243 280 19,000  Level Atlanta Center
Tue 10:59:33 PM 35.2542 -83.5811 38° Northeast 243 280 19,000 -100 Level Atlanta Center
Tue 11:00:33 PM 35.3103 -83.5297 37° Northeast 243 280 18,800 -350 Descending Atlanta Center
Tue 11:01:33 PM 35.3686 -83.4758 37° Northeast 243 280 18,300 -500 Descending Atlanta Center
Tue 11:02:33 PM 35.4247 -83.4194 39° Northeast 248 285 17,800 -650 Descending Atlanta Center
Tue 11:03:33 PM 35.4828 -83.3653 37° Northeast 254 292 17,000 -450 Descending Atlanta Center
Tue 11:04:33 PM 35.5367 -83.3192 35° Northeast 248 285 16,900 -50 Descending Atlanta Center
Tue 11:05:33 PM 35.5864 -83.2675 40° Northeast 237 273 16,900 100 Level Atlanta Center
Tue 11:06:33 PM 35.6342 -83.2186 40° Northeast 225 259 17,100 100 Climbing Atlanta Center
Tue 11:07:33 PM 35.6839 -83.1694 39° Northeast 225 259 17,100 -150 Level Atlanta Center
Tue 11:08:33 PM 35.7358 -83.1228 36° Northeast 225 259 16,800 -700 Descending Atlanta Center
Tue 11:09:33 PM 35.7894 -83.0736 37° Northeast 237 273 15,700 -1,200 Descending Atlanta Center
Tue 11:10:33 PM 35.8475 -83.0167 38° Northeast 242 278 14,400 -1,250 Descending Atlanta Center
Tue 11:11:33 PM 35.9014 -82.9619 39° Northeast 242 278 13,200 -1,200 Descending Atlanta Center
Tue 11:12:33 PM 35.9531 -82.9128 38° Northeast 247 284 12,000 -1,150 Descending Atlanta Center
Tue 11:13:33 PM 36.0067 -82.8656 35° Northeast 241 277 10,900 -700 Descending Atlanta Center
Tue 11:14:33 PM 36.0544 -82.8214 37° Northeast 228 262 10,600 -500 Descending Atlanta Center
Tue 11:15:33 PM 36.1017 -82.7717 40° Northeast 223 257 9,900 -400 Descending Atlanta Center
Tue 11:16:33 PM 36.1386 -82.7147 51° Northeast 210 242 9,800 -600 Descending Atlanta Center
Tue 11:17:33 PM 36.1756 -82.6575 51° Northeast 202 232 8,700 -1,100 Descending Atlanta Center
Tue 11:18:33 PM 36.2186 -82.5950 49° Northeast 218 251 7,600 -1,100 Descending Atlanta Center
Tue 11:19:33 PM 36.2597 -82.5325 51° Northeast 223 257 6,500 -950 Descending Atlanta Center
Tue 11:20:33 PM 36.3028 -82.4775 46° Northeast 223 257 5,700 -800 Descending Atlanta Center
Tue 11:22:00 PM 36.3898 -82.4422 31° Northeast  Level Estimated
Tue 11:29:00 PM 36.4667 -82.4000 39° Northeast  Level FlightAware Approximate
Tue 11:30:00 PM 36.4752 -82.4074 39° Northeast  Level Estimated
Tue 11:31:00 PM 36.4752 -82.4074 39° Northeast  Level Estimated
Tue 11:32:00 PM 36.4752 -82.4074 39° Northeast  Level Estimated
Tue 11:33:00 PM 36.4752 -82.4074 39° Northeast  Level Estimated
Tue 11:34:00 PM 36.4752 -82.4074 39° Northeast  Level Estimated
Tue 11:35:00 PM 36.4752 -82.4074 39° Northeast  Level Estimated

Login

Don't have an account? Register now (free) for customized features, flight alerts, and more!